Time;durP1;ratioP1;P1;durP2;ratioP2;P2;SDS_P1;SDS_P2;PMS_P1;PMS_P2;Temp;Humidity;BMP_temperature;BMP_pressure;BME280_temperature;BME280_humidity;BME280_pressure;Samples;Min_cycle;Max_cycle;Signal;HPM_P1;HPM_P2
2022/07/25 00:00:35;;;;;;;11.73;8.80;;;18.40;99.90;;;;;;5135159;27;20221;-69
2022/07/25 00:03:02;;;;;;;10.87;8.17;;;18.50;99.90;;;;;;5135631;27;20239;-69
2022/07/25 00:05:29;;;;;;;12.43;9.10;;;18.40;99.90;;;;;;5134248;27;20236;-69
2022/07/25 00:07:57;;;;;;;12.43;8.53;;;18.40;99.90;;;;;;5135212;27;20221;-69
2022/07/25 00:10:24;;;;;;;13.47;8.87;;;18.40;99.90;;;;;;5127873;27;20270;-68
2022/07/25 00:12:51;;;;;;;12.10;8.73;;;18.30;99.90;;;;;;5135521;27;20249;-70
2022/07/25 00:15:18;;;;;;;13.83;8.80;;;18.30;99.90;;;;;;5134971;27;20210;-68
2022/07/25 00:17:45;;;;;;;10.37;8.67;;;18.30;99.90;;;;;;5130392;27;20209;-69
2022/07/25 00:20:12;;;;;;;11.03;8.60;;;18.30;99.90;;;;;;5131939;27;20222;-69
2022/07/25 00:22:39;;;;;;;12.67;8.03;;;18.30;99.90;;;;;;5132297;27;20296;-68
2022/07/25 00:25:08;;;;;;;11.33;8.00;;;18.30;99.90;;;;;;5114593;28;20205;-69
2022/07/25 00:27:35;;;;;;;13.90;8.13;;;18.30;99.90;;;;;;5114229;28;20314;-70
2022/07/25 00:30:02;;;;;;;12.37;8.40;;;18.20;99.90;;;;;;5114268;28;20302;-69
2022/07/25 00:32:29;;;;;;;10.97;8.30;;;18.20;99.90;;;;;;5113264;28;20215;-69
2022/07/25 00:34:56;;;;;;;11.47;8.07;;;18.20;99.90;;;;;;5114089;27;20203;-69
2022/07/25 00:37:23;;;;;;;10.03;8.00;;;18.20;99.90;;;;;;5114280;28;20208;-68
2022/07/25 00:39:50;;;;;;;12.77;8.40;;;18.10;99.90;;;;;;5114463;28;20294;-69
2022/07/25 00:42:18;;;;;;;11.20;7.80;;;18.10;99.90;;;;;;5113946;28;20253;-70
2022/07/25 00:44:45;;;;;;;9.70;8.13;;;18.10;99.90;;;;;;5113645;28;20210;-68
2022/07/25 00:47:12;;;;;;;8.53;7.57;;;18.10;99.90;;;;;;5113923;28;20688;-69
2022/07/25 00:49:39;;;;;;;10.63;7.80;;;18.10;99.90;;;;;;5114283;28;20251;-70
2022/07/25 00:52:06;;;;;;;11.90;7.77;;;18.00;99.90;;;;;;5113616;28;20279;-68
2022/07/25 00:54:33;;;;;;;8.67;7.47;;;18.00;99.90;;;;;;5126354;27;20660;-69
2022/07/25 00:57:00;;;;;;;9.90;7.17;;;18.00;99.90;;;;;;5120655;27;20203;-69
2022/07/25 00:59:28;;;;;;;9.33;7.40;;;18.00;99.90;;;;;;5134560;27;20755;-69
2022/07/25 01:01:55;;;;;;;11.90;7.40;;;18.00;99.90;;;;;;5134796;27;20209;-69
2022/07/25 01:04:22;;;;;;;10.87;7.70;;;18.00;99.90;;;;;;5134092;27;20217;-68
2022/07/25 01:06:49;;;;;;;10.73;7.33;;;18.00;99.90;;;;;;5134510;27;20316;-70
2022/07/25 01:09:16;;;;;;;10.90;7.73;;;17.90;99.90;;;;;;5132126;27;20205;-69
2022/07/25 01:11:43;;;;;;;9.53;7.07;;;17.90;99.90;;;;;;5133577;27;20295;-69
2022/07/25 01:14:10;;;;;;;8.37;6.67;;;17.90;99.90;;;;;;5134168;27;20247;-68
2022/07/25 01:16:40;;;;;;;12.00;6.87;;;17.90;99.90;;;;;;5134424;27;20292;-69
2022/07/25 01:19:07;;;;;;;9.07;6.97;;;17.90;99.90;;;;;;5134206;27;20235;-69
2022/07/25 01:21:38;;;;;;;9.07;6.40;;;17.80;99.90;;;;;;5131373;27;20250;-69
2022/07/25 01:24:05;;;;;;;10.00;7.03;;;17.80;99.90;;;;;;5133911;27;20642;-70
2022/07/25 01:26:32;;;;;;;8.10;7.03;;;17.80;99.90;;;;;;5133820;27;20205;-67
2022/07/25 01:28:59;;;;;;;8.57;6.83;;;17.80;99.90;;;;;;5133773;27;20224;-69
2022/07/25 01:31:26;;;;;;;12.40;7.20;;;17.70;99.90;;;;;;5124788;27;20212;-69
2022/07/25 01:33:53;;;;;;;11.47;7.03;;;17.70;99.90;;;;;;5112970;28;20639;-70
2022/07/25 01:36:20;;;;;;;8.73;7.00;;;17.70;99.90;;;;;;5112750;28;20216;-68
2022/07/25 01:38:48;;;;;;;10.13;6.63;;;17.70;99.90;;;;;;5113514;28;20278;-69
2022/07/25 01:41:15;;;;;;;8.50;7.07;;;17.60;99.90;;;;;;5112888;28;20200;-70
2022/07/25 01:43:42;;;;;;;10.10;7.47;;;17.60;99.90;;;;;;5113220;28;20251;-69
2022/07/25 01:46:09;;;;;;;9.50;6.93;;;17.50;99.90;;;;;;5112198;28;20674;-69
2022/07/25 01:48:36;;;;;;;9.57;6.93;;;17.50;99.90;;;;;;5112842;28;20312;-71
2022/07/25 01:51:03;;;;;;;9.67;6.93;;;17.50;99.90;;;;;;5112793;27;20635;-68
2022/07/25 01:53:30;;;;;;;9.27;6.67;;;17.40;99.90;;;;;;5113032;28;20739;-68
2022/07/25 01:55:59;;;;;;;10.30;6.73;;;17.40;99.90;;;;;;5112697;28;20580;-70
2022/07/25 01:58:26;;;;;;;9.07;6.30;;;17.40;99.90;;;;;;5112989;28;20646;-70
2022/07/25 02:00:53;;;;;;;8.63;6.37;;;17.40;99.90;;;;;;5112482;27;20231;-68
2022/07/25 02:03:31;;;;;;;10.43;6.80;;;17.30;99.90;;;;;;5113447;27;20245;-69
2022/07/25 02:06:01;;;;;;;9.50;6.50;;;17.30;99.90;;;;;;5112077;28;20302;-69
2022/07/25 02:08:28;;;;;;;10.40;6.73;;;17.30;99.90;;;;;;5112469;28;20261;-69
2022/07/25 02:10:56;;;;;;;9.20;6.50;;;17.20;99.90;;;;;;5112500;28;20292;-68
2022/07/25 02:13:25;;;;;;;9.60;6.40;;;17.20;99.90;;;;;;5112736;28;20254;-69
2022/07/25 02:15:52;;;;;;;8.33;6.33;;;17.10;99.90;;;;;;5118184;27;20260;-68
2022/07/25 02:18:19;;;;;;;10.60;6.67;;;17.10;99.90;;;;;;5133041;27;20738;-68
2022/07/25 02:20:46;;;;;;;9.47;6.03;;;17.10;99.90;;;;;;5133178;27;20206;-68
2022/07/25 02:23:13;;;;;;;13.00;6.53;;;17.10;99.90;;;;;;5132588;27;20299;-69
2022/07/25 02:25:40;;;;;;;10.77;6.60;;;17.00;99.90;;;;;;5133099;27;20290;-69
2022/07/25 02:28:07;;;;;;;12.00;6.73;;;17.00;99.90;;;;;;5132417;27;20307;-68
2022/07/25 02:30:35;;;;;;;8.70;6.47;;;17.00;99.90;;;;;;5131521;27;20202;-69
2022/07/25 02:33:02;;;;;;;9.90;6.60;;;17.00;99.90;;;;;;5132370;27;20310;-69
2022/07/25 02:35:29;;;;;;;9.60;6.40;;;17.00;99.90;;;;;;5133110;27;20231;-69
2022/07/25 02:37:56;;;;;;;9.73;6.57;;;16.90;99.90;;;;;;5132358;27;20195;-69
2022/07/25 02:40:23;;;;;;;12.23;6.70;;;16.90;99.90;;;;;;5132607;27;20298;-69
2022/07/25 02:42:49;;;;;;;9.83;6.53;;;16.80;99.90;;;;;;5132406;27;20291;-68
2022/07/25 02:45:16;;;;;;;12.20;6.53;;;16.80;99.90;;;;;;5131633;27;20577;-69
2022/07/25 02:47:45;;;;;;;9.90;6.50;;;16.80;99.90;;;;;;5126742;27;20231;-68
2022/07/25 02:50:12;;;;;;;11.03;6.40;;;16.80;99.90;;;;;;5112203;28;20199;-69
2022/07/25 02:52:38;;;;;;;8.17;6.20;;;16.90;99.90;;;;;;5112126;28;20782;-69
2022/07/25 02:55:08;;;;;;;9.17;6.03;;;16.80;99.90;;;;;;5112105;28;20253;-68
2022/07/25 02:57:34;;;;;;;11.57;6.40;;;16.80;99.90;;;;;;5126849;28;20294;-68
2022/07/25 03:00:01;;;;;;;7.43;5.90;;;16.80;99.90;;;;;;5131374;27;20231;-69
2022/07/25 03:02:28;;;;;;;8.47;6.30;;;16.70;99.90;;;;;;5132636;27;20656;-69
2022/07/25 03:04:57;;;;;;;8.10;6.07;;;16.70;99.90;;;;;;5132433;27;20638;-68
2022/07/25 03:07:23;;;;;;;8.00;6.00;;;16.80;99.90;;;;;;5132662;27;20557;-69
2022/07/25 03:09:50;;;;;;;12.93;6.00;;;16.70;99.90;;;;;;5132169;27;20322;-69
2022/07/25 03:12:17;;;;;;;10.80;6.20;;;16.70;99.90;;;;;;5119725;27;20254;-70
2022/07/25 03:14:44;;;;;;;10.67;6.17;;;16.70;99.90;;;;;;5111793;28;20205;-69
2022/07/25 03:17:11;;;;;;;11.27;6.37;;;16.70;99.90;;;;;;5111744;28;20268;-69
2022/07/25 03:19:38;;;;;;;9.30;6.03;;;16.70;99.90;;;;;;5114643;28;20199;-69
2022/07/25 03:22:06;;;;;;;10.50;6.30;;;16.70;99.90;;;;;;5131993;27;20203;-69
2022/07/25 03:24:33;;;;;;;6.77;5.57;;;16.70;99.90;;;;;;5132408;27;20242;-69
2022/07/25 03:27:00;;;;;;;11.30;6.10;;;16.80;99.90;;;;;;5132374;27;20669;-68
2022/07/25 03:29:27;;;;;;;9.70;6.30;;;16.80;99.90;;;;;;5131131;27;20230;-70
2022/07/25 03:31:54;;;;;;;10.53;5.67;;;16.80;99.90;;;;;;5131973;27;20566;-69
2022/07/25 03:34:21;;;;;;;9.17;6.13;;;16.90;99.90;;;;;;5123590;27;20647;-70
2022/07/25 03:36:48;;;;;;;8.23;6.10;;;16.90;99.90;;;;;;5111318;28;20234;-70
2022/07/25 03:39:17;;;;;;;12.37;6.63;;;17.00;99.90;;;;;;5125164;28;20200;-69
2022/07/25 03:41:44;;;;;;;11.73;5.83;;;17.00;99.90;;;;;;5132071;27;20593;-69
2022/07/25 03:44:11;;;;;;;9.83;6.03;;;17.10;99.90;;;;;;5133016;27;20291;-68
2022/07/25 03:46:38;;;;;;;8.93;5.43;;;17.10;99.90;;;;;;5136104;27;20198;-69
2022/07/25 03:49:05;;;;;;;10.80;6.03;;;17.10;99.90;;;;;;5135690;27;20220;-70
2022/07/25 03:51:32;;;;;;;8.23;5.30;;;17.20;99.90;;;;;;5135641;27;20329;-69
2022/07/25 03:54:01;;;;;;;7.23;5.37;;;17.10;99.90;;;;;;5117791;27;20230;-69
2022/07/25 03:56:31;;;;;;;9.47;5.53;;;17.20;99.90;;;;;;5115301;28;20310;-69
2022/07/25 03:58:58;;;;;;;7.93;5.43;;;17.30;99.90;;;;;;5115026;28;20277;-69
2022/07/25 04:01:25;;;;;;;6.37;5.20;;;17.30;99.90;;;;;;5115286;28;20294;-71
2022/07/25 04:03:51;;;;;;;8.70;5.07;;;17.40;99.90;;;;;;5114609;28;20211;-68
2022/07/25 04:06:18;;;;;;;7.17;5.13;;;17.40;99.90;;;;;;5114903;28;20302;-69
2022/07/25 04:08:45;;;;;;;7.63;5.20;;;17.40;99.90;;;;;;5130522;27;20323;-69
2022/07/25 04:11:12;;;;;;;6.40;5.10;;;17.50;99.90;;;;;;5135432;27;20620;-69
2022/07/25 04:13:41;;;;;;;9.57;5.43;;;17.50;99.90;;;;;;5135417;27;20207;-70
2022/07/25 04:16:08;;;;;;;7.20;5.20;;;17.40;99.90;;;;;;5135543;27;20222;-69
2022/07/25 04:18:35;;;;;;;5.90;5.17;;;17.50;99.90;;;;;;5135546;27;20236;-68
2022/07/25 04:21:02;;;;;;;12.70;5.80;;;17.50;99.90;;;;;;5134481;27;20274;-70
2022/07/25 04:23:30;;;;;;;6.40;4.90;;;17.50;99.90;;;;;;5114654;28;20288;-67
2022/07/25 04:25:57;;;;;;;9.27;5.60;;;17.50;99.90;;;;;;5114682;28;20757;-68
2022/07/25 04:28:24;;;;;;;9.33;6.17;;;17.50;99.90;;;;;;5114483;28;20231;-68
2022/07/25 04:30:52;;;;;;;12.10;5.83;;;17.60;99.90;;;;;;5113890;28;20228;-67
2022/07/25 04:33:20;;;;;;;8.40;5.33;;;17.60;99.90;;;;;;5114282;27;20295;-70
2022/07/25 04:35:47;;;;;;;10.30;5.30;;;17.70;99.90;;;;;;5114247;28;20278;-68
2022/07/25 04:38:14;;;;;;;9.93;5.87;;;17.70;99.90;;;;;;5113725;28;20247;-67
2022/07/25 04:40:41;;;;;;;12.33;6.10;;;17.60;99.90;;;;;;5114426;28;20613;-69
2022/07/25 04:43:08;;;;;;;10.47;6.00;;;17.60;99.90;;;;;;5114022;28;20204;-67
2022/07/25 04:45:36;;;;;;;10.93;6.07;;;17.60;99.90;;;;;;5113885;28;20205;-68
2022/07/25 04:48:04;;;;;;;10.53;5.70;;;17.60;99.90;;;;;;5130829;27;20213;-68
2022/07/25 04:50:31;;;;;;;7.93;6.00;;;17.50;99.90;;;;;;5134643;27;20204;-67
2022/07/25 04:52:58;;;;;;;10.77;5.90;;;17.50;99.90;;;;;;5134359;27;20282;-67
2022/07/25 04:55:25;;;;;;;9.77;6.17;;;17.50;99.90;;;;;;5134729;27;20297;-67
2022/07/25 04:57:52;;;;;;;8.30;5.60;;;17.60;99.90;;;;;;5132329;27;20233;-67
2022/07/25 05:00:19;;;;;;;10.23;6.10;;;17.60;99.90;;;;;;5134342;27;20204;-69
2022/07/25 05:02:46;;;;;;;10.83;6.60;;;17.70;99.90;;;;;;5132467;27;20214;-68
2022/07/25 05:05:14;;;;;;;8.37;5.80;;;17.90;99.90;;;;;;5133544;27;20207;-68
2022/07/25 05:07:41;;;;;;;11.07;6.03;;;18.00;99.90;;;;;;5133794;27;20200;-68
2022/07/25 05:10:09;;;;;;;8.13;5.87;;;18.00;99.90;;;;;;5134383;27;20254;-70
2022/07/25 05:12:36;;;;;;;9.13;5.73;;;18.10;99.90;;;;;;5134237;27;20246;-68
2022/07/25 05:15:03;;;;;;;8.50;5.73;;;18.10;99.90;;;;;;5134160;27;20211;-69
2022/07/25 05:17:30;;;;;;;9.33;5.70;;;18.10;99.90;;;;;;5134056;27;20207;-68
2022/07/25 05:19:57;;;;;;;12.07;6.17;;;18.10;99.90;;;;;;5132642;27;20205;-68
2022/07/25 05:22:26;;;;;;;8.60;5.93;;;18.20;99.90;;;;;;5133675;27;20217;-67
2022/07/25 05:24:52;;;;;;;8.87;5.90;;;18.20;99.90;;;;;;5133925;27;20567;-68
2022/07/25 05:27:19;;;;;;;8.83;6.20;;;18.20;99.90;;;;;;5134101;27;20208;-68
2022/07/25 05:29:46;;;;;;;8.83;5.40;;;18.30;99.90;;;;;;5133680;27;20743;-67
2022/07/25 05:32:13;;;;;;;6.87;5.50;;;18.40;99.90;;;;;;5133704;27;20271;-67
2022/07/25 05:34:40;;;;;;;7.43;4.80;;;18.40;99.90;;;;;;5131705;27;20294;-68
2022/07/25 05:37:07;;;;;;;8.40;5.57;;;18.50;99.90;;;;;;5132932;27;20733;-66
2022/07/25 05:39:36;;;;;;;9.43;5.20;;;18.70;99.90;;;;;;5112433;27;20269;-68
2022/07/25 05:42:03;;;;;;;11.90;5.80;;;18.80;99.90;;;;;;5128231;27;20227;-67
2022/07/25 05:44:30;;;;;;;8.53;5.07;;;18.80;99.90;;;;;;5124613;27;20210;-66
2022/07/25 05:46:57;;;;;;;9.37;5.60;;;18.90;99.90;;;;;;5118500;27;20297;-66
2022/07/25 05:49:24;;;;;;;8.47;5.70;;;18.90;99.90;;;;;;5127389;27;20215;-67
2022/07/25 05:51:51;;;;;;;5.80;4.97;;;18.90;99.90;;;;;;5113725;27;20661;-66
2022/07/25 05:54:18;;;;;;;9.43;5.40;;;18.90;99.90;;;;;;5122569;27;20554;-67
2022/07/25 05:56:46;;;;;;;9.00;5.80;;;19.00;99.90;;;;;;5131089;27;20608;-67
2022/07/25 05:59:13;;;;;;;7.20;4.97;;;19.00;99.90;;;;;;5112680;28;20670;-66
2022/07/25 06:01:40;;;;;;;10.57;5.53;;;19.10;99.90;;;;;;5112210;28;20299;-66
2022/07/25 06:04:07;;;;;;;7.33;5.03;;;19.20;99.90;;;;;;5112446;28;20200;-66
2022/07/25 06:06:34;;;;;;;8.43;5.80;;;19.30;99.90;;;;;;5111738;28;20204;-67
2022/07/25 06:09:01;;;;;;;7.70;5.40;;;19.30;99.90;;;;;;5111223;28;20615;-66
2022/07/25 06:11:29;;;;;;;8.43;5.00;;;19.20;99.90;;;;;;5112215;28;20709;-67
2022/07/25 06:13:58;;;;;;;11.87;5.80;;;19.20;99.90;;;;;;5112233;28;20218;-69
2022/07/25 06:16:25;;;;;;;7.50;4.73;;;19.20;99.90;;;;;;5111664;28;20295;-68
2022/07/25 06:18:52;;;;;;;7.93;5.33;;;19.30;99.90;;;;;;5112249;28;20311;-68
2022/07/25 06:21:18;;;;;;;9.40;6.10;;;19.30;99.90;;;;;;5112364;28;20250;-66
2022/07/25 06:23:45;;;;;;;6.20;5.03;;;19.40;99.90;;;;;;5112180;28;20479;-69
2022/07/25 06:26:12;;;;;;;10.83;5.90;;;19.50;99.90;;;;;;5112093;28;20291;-67
2022/07/25 06:28:39;;;;;;;11.43;5.10;;;19.60;99.90;;;;;;5112069;28;20921;-68
2022/07/25 06:31:07;;;;;;;5.90;5.30;;;19.60;99.90;;;;;;5111921;28;20295;-66
2022/07/25 06:33:34;;;;;;;6.53;4.97;;;19.70;99.90;;;;;;5131878;27;20296;-68
2022/07/25 06:36:01;;;;;;;11.63;5.77;;;19.80;99.90;;;;;;5131986;27;20543;-67
2022/07/25 06:38:28;;;;;;;9.70;5.93;;;19.90;99.90;;;;;;5132391;27;20238;-66
2022/07/25 06:40:55;;;;;;;9.73;6.23;;;20.00;99.90;;;;;;5132660;27;20727;-68
2022/07/25 06:43:22;;;;;;;7.77;5.23;;;20.20;99.90;;;;;;5114813;27;20293;-69
2022/07/25 06:45:49;;;;;;;10.50;5.40;;;20.30;99.90;;;;;;5111879;28;20244;-67
2022/07/25 06:48:18;;;;;;;6.90;4.90;;;20.50;99.90;;;;;;5111655;28;20203;-69
2022/07/25 06:50:45;;;;;;;7.30;5.20;;;20.60;99.90;;;;;;5111866;28;20308;-67
2022/07/25 06:53:12;;;;;;;8.00;4.80;;;20.70;99.90;;;;;;5124615;28;20227;-69
2022/07/25 06:55:39;;;;;;;8.03;4.73;;;20.90;99.90;;;;;;5130821;27;20196;-67
2022/07/25 06:58:06;;;;;;;7.90;4.73;;;21.00;99.90;;;;;;5132193;27;20295;-68
2022/07/25 07:00:33;;;;;;;9.03;5.33;;;21.20;99.90;;;;;;5130831;27;20556;-67
2022/07/25 07:03:03;;;;;;;9.93;5.30;;;21.30;99.90;;;;;;5111691;28;20700;-68
2022/07/25 07:05:35;;;;;;;10.47;5.50;;;21.30;99.90;;;;;;5110523;28;20229;-68
2022/07/25 07:08:02;;;;;;;9.33;4.83;;;21.30;99.90;;;;;;5112046;28;20195;-67
2022/07/25 07:10:30;;;;;;;7.23;5.03;;;21.30;99.90;;;;;;5111530;28;20234;-67
2022/07/25 07:13:07;;;;;;;9.13;5.50;;;21.30;99.90;;;;;;5129842;28;20199;-68
2022/07/25 07:15:34;;;;;;;9.00;5.37;;;21.30;99.90;;;;;;5128883;28;20186;-67
2022/07/25 07:18:01;;;;;;;6.57;4.90;;;21.40;99.90;;;;;;5131540;27;20274;-67
2022/07/25 07:20:28;;;;;;;9.17;5.07;;;21.40;99.90;;;;;;5132485;27;20343;-67
2022/07/25 07:22:56;;;;;;;8.73;5.20;;;21.40;99.90;;;;;;5134811;27;20201;-68
2022/07/25 07:25:23;;;;;;;8.80;4.80;;;21.30;99.90;;;;;;5135358;27;20278;-68
2022/07/25 07:27:51;;;;;;;10.50;5.70;;;21.30;99.90;;;;;;5133596;27;20295;-67
2022/07/25 07:30:19;;;;;;;8.80;5.50;;;21.20;99.90;;;;;;5131543;27;20245;-68
2022/07/25 07:32:46;;;;;;;8.00;5.13;;;21.30;99.90;;;;;;5134430;27;20289;-68
2022/07/25 07:35:16;;;;;;;7.03;4.77;;;21.40;99.90;;;;;;5135965;27;20229;-66
2022/07/25 07:37:44;;;;;;;9.50;4.67;;;21.50;99.90;;;;;;5136320;27;20560;-67
2022/07/25 07:40:13;;;;;;;10.03;5.03;;;21.60;99.90;;;;;;5135793;27;20202;-68
2022/07/25 07:42:41;;;;;;;7.10;5.20;;;21.60;99.90;;;;;;5134330;27;20199;-67
2022/07/25 07:45:16;;;;;;;7.93;4.80;;;21.70;99.90;;;;;;5134676;27;20297;-67
2022/07/25 07:47:43;;;;;;;5.97;4.63;;;21.80;99.90;;;;;;5130350;27;20195;-69
2022/07/25 07:50:11;;;;;;;5.47;4.03;;;21.80;99.90;;;;;;5134106;27;20218;-66
2022/07/25 07:52:38;;;;;;;9.20;4.60;;;21.90;99.90;;;;;;5134192;27;20328;-69
2022/07/25 07:57:52;;;;;;;8.00;4.97;;;22.00;99.90;;;;;;5129442;27;20199;-67
2022/07/25 08:00:19;;;;;;;5.53;4.40;;;22.00;99.90;;;;;;5133150;27;20559;-68
2022/07/25 08:02:52;;;;;;;6.87;4.27;;;22.00;99.90;;;;;;5133539;27;20202;-67
2022/07/25 08:05:23;;;;;;;8.00;3.87;;;22.00;99.90;;;;;;5128495;27;20287;-68
2022/07/25 08:07:50;;;;;;;7.43;4.10;;;22.00;99.90;;;;;;5125146;27;20202;-66
2022/07/25 08:10:19;;;;;;;10.20;4.10;;;22.10;99.90;;;;;;5124385;27;20230;-67
2022/07/25 08:12:46;;;;;;;7.70;4.10;;;22.10;99.90;;;;;;5134934;27;20234;-67
2022/07/25 08:15:16;;;;;;;9.73;4.20;;;22.20;99.90;;;;;;5134774;27;20202;-68
2022/07/25 08:17:43;;;;;;;7.87;4.03;;;22.20;99.90;;;;;;5125844;27;20198;-67
2022/07/25 08:20:12;;;;;;;5.50;3.97;;;22.30;99.90;;;;;;5115600;27;20250;-67
2022/07/25 08:22:40;;;;;;;7.83;3.70;;;22.40;99.90;;;;;;5120047;27;21259;-68
2022/07/25 08:25:08;;;;;;;4.33;3.53;;;22.40;99.90;;;;;;5134530;27;20391;-68
2022/07/25 08:27:36;;;;;;;6.57;3.60;;;22.50;99.90;;;;;;5133813;27;20216;-67
2022/07/25 08:30:05;;;;;;;9.40;3.97;;;22.50;99.90;;;;;;5133733;27;20216;-67
2022/07/25 08:32:34;;;;;;;4.87;3.60;;;22.50;99.90;;;;;;5134808;27;20573;-67
2022/07/25 08:35:01;;;;;;;5.73;4.00;;;22.50;99.90;;;;;;5134577;27;20248;-70
2022/07/25 08:37:28;;;;;;;6.07;4.10;;;22.50;99.90;;;;;;5134507;27;20213;-69
2022/07/25 08:39:56;;;;;;;6.87;3.87;;;22.50;99.90;;;;;;5134392;27;20285;-68
2022/07/25 08:42:22;;;;;;;5.37;3.80;;;22.40;99.90;;;;;;5134816;27;20209;-68
2022/07/25 08:44:57;;;;;;;4.20;3.57;;;22.30;99.90;;;;;;5118541;27;20203;-67
2022/07/25 08:47:24;;;;;;;8.23;3.67;;;22.20;99.90;;;;;;5113827;28;20191;-66
2022/07/25 08:49:53;;;;;;;5.30;3.13;;;22.30;99.90;;;;;;5114751;27;20300;-66
2022/07/25 08:52:21;;;;;;;3.97;3.20;;;22.40;99.90;;;;;;5112886;28;20235;-66
2022/07/25 08:54:48;;;;;;;5.20;3.90;;;22.60;99.90;;;;;;5113669;28;20336;-67
2022/07/25 08:57:15;;;;;;;6.33;3.17;;;22.80;99.90;;;;;;5113718;28;20291;-65
2022/07/25 08:59:42;;;;;;;4.33;3.47;;;22.80;99.90;;;;;;5133145;27;20208;-67
2022/07/25 09:02:13;;;;;;;5.07;3.47;;;22.70;99.90;;;;;;5130832;27;20291;-67
2022/07/25 09:04:42;;;;;;;5.13;3.37;;;22.70;99.90;;;;;;5132185;27;20203;-66
2022/07/25 09:07:10;;;;;;;6.23;3.50;;;22.70;99.90;;;;;;5119954;27;20714;-68
2022/07/25 09:09:38;;;;;;;5.50;3.50;;;22.80;99.90;;;;;;5134063;27;20217;-67
2022/07/25 09:12:07;;;;;;;5.63;3.90;;;22.80;99.90;;;;;;5123690;27;20202;-69
2022/07/25 09:14:42;;;;;;;3.87;3.00;;;22.90;99.90;;;;;;5113285;28;20249;-68
2022/07/25 09:17:09;;;;;;;5.97;3.30;;;22.90;99.90;;;;;;5122604;27;20209;-69
2022/07/25 09:19:36;;;;;;;6.47;3.33;;;22.90;99.90;;;;;;5113552;28;20235;-69
2022/07/25 09:22:05;;;;;;;5.57;3.40;;;22.90;99.90;;;;;;5114452;27;20373;-70
2022/07/25 09:24:34;;;;;;;5.03;3.30;;;22.80;99.90;;;;;;5132523;27;20194;-71
2022/07/25 09:27:09;;;;;;;5.17;3.87;;;22.80;99.90;;;;;;5133352;27;20614;-69
2022/07/25 09:29:38;;;;;;;4.60;3.47;;;22.80;99.90;;;;;;5127515;27;20276;-69
2022/07/25 09:32:15;;;;;;;4.50;3.50;;;22.80;99.90;;;;;;5133260;27;20204;-68
2022/07/25 09:34:44;;;;;;;4.93;3.37;;;22.90;99.90;;;;;;5127393;27;20724;-69
2022/07/25 09:37:13;;;;;;;3.90;3.33;;;23.00;99.90;;;;;;5111960;27;20201;-68
2022/07/25 09:39:44;;;;;;;6.03;3.40;;;23.10;99.90;;;;;;5112989;28;20283;-69
2022/07/25 09:42:22;;;;;;;6.33;3.70;;;23.20;99.90;;;;;;5124395;27;20223;-69
2022/07/25 09:45:05;;;;;;;6.43;3.60;;;23.30;99.90;;;;;;5128748;27;20618;-70
2022/07/25 09:47:34;;;;;;;5.20;3.20;;;23.20;99.90;;;;;;5129888;27;20631;-68
2022/07/25 09:50:01;;;;;;;5.87;3.30;;;23.20;99.90;;;;;;5131458;27;20217;-70
2022/07/25 09:52:28;;;;;;;4.43;3.30;;;23.30;99.90;;;;;;5119623;27;20374;-71
2022/07/25 09:54:56;;;;;;;4.93;3.53;;;23.40;99.90;;;;;;5112029;28;20240;-69
2022/07/25 09:57:24;;;;;;;4.23;3.07;;;23.40;99.90;;;;;;5130186;27;20197;-70
2022/07/25 09:59:52;;;;;;;6.43;3.30;;;23.30;99.90;;;;;;5132354;27;20206;-68
2022/07/25 10:02:36;;;;;;;6.63;3.60;;;23.30;99.90;;;;;;5133113;27;20207;-69
2022/07/25 10:05:12;;;;;;;4.77;3.50;;;23.50;99.90;;;;;;5132970;27;20285;-69
2022/07/25 10:07:43;;;;;;;7.63;3.80;;;23.70;99.90;;;;;;5112932;27;20230;-68
2022/07/25 10:10:23;;;;;;;5.47;4.07;;;23.80;99.90;;;;;;5126467;27;20228;-70
2022/07/25 10:13:02;;;;;;;5.00;3.80;;;23.80;99.90;;;;;;5112057;28;20719;-67
2022/07/25 10:15:40;;;;;;;5.87;3.70;;;23.80;99.90;;;;;;5112218;28;20239;-70
2022/07/25 10:18:07;;;;;;;6.93;3.40;;;23.70;99.90;;;;;;5111993;28;20603;-70
2022/07/25 10:20:35;;;;;;;4.60;3.27;;;23.70;99.90;;;;;;5111686;27;20392;-67
2022/07/25 10:23:02;;;;;;;6.10;3.20;;;23.60;99.90;;;;;;5112144;28;20208;-68
2022/07/25 10:25:30;;;;;;;6.30;3.60;;;23.60;99.90;;;;;;5113324;27;20681;-68
2022/07/25 10:28:02;;;;;;;4.37;3.13;;;23.60;99.90;;;;;;5111223;28;20298;-68
2022/07/25 10:30:39;;;;;;;5.27;3.43;;;23.60;99.90;;;;;;5112112;28;20586;-68
2022/07/25 10:33:13;;;;;;;5.70;3.63;;;23.60;99.90;;;;;;5112094;28;20686;-67
2022/07/25 10:35:40;;;;;;;6.33;3.77;;;23.70;99.90;;;;;;5120331;27;20585;-67
2022/07/25 10:38:07;;;;;;;5.87;4.07;;;23.80;99.90;;;;;;5132039;27;20241;-67
2022/07/25 10:40:38;;;;;;;5.30;3.80;;;23.80;99.90;;;;;;5132671;27;20205;-67
2022/07/25 10:43:11;;;;;;;5.23;3.30;;;23.90;99.90;;;;;;5117459;27;20206;-67
2022/07/25 10:45:42;;;;;;;5.00;3.43;;;24.10;99.90;;;;;;5123945;27;20226;-68
2022/07/25 10:48:20;;;;;;;3.90;3.07;;;24.10;99.90;;;;;;5115286;28;20202;-67
2022/07/25 10:50:52;;;;;;;6.17;3.77;;;24.10;99.90;;;;;;5121861;27;20203;-68
2022/07/25 10:53:33;;;;;;;5.67;3.40;;;24.20;99.90;;;;;;5125743;27;20714;-70
2022/07/25 10:56:08;;;;;;;5.57;3.80;;;24.30;99.90;;;;;;5130117;28;20243;-68
2022/07/25 10:58:49;;;;;;;6.63;4.10;;;24.20;99.90;;;;;;5129309;27;20199;-69
2022/07/25 11:01:22;;;;;;;10.30;4.20;;;24.10;99.90;;;;;;5131469;28;20197;-69
2022/07/25 11:03:49;;;;;;;7.23;4.10;;;24.10;99.90;;;;;;5118149;27;20264;-69
2022/07/25 11:06:28;;;;;;;6.13;3.40;;;24.10;99.90;;;;;;5126933;28;20241;-70
2022/07/25 11:08:58;;;;;;;6.60;3.97;;;24.20;99.90;;;;;;5131925;27;20275;-70
2022/07/25 11:11:39;;;;;;;8.07;4.03;;;24.20;99.90;;;;;;5132187;27;20293;-71
2022/07/25 11:14:14;;;;;;;5.17;4.10;;;24.00;99.90;;;;;;5130627;27;20187;-67
2022/07/25 11:16:40;;;;;;;6.77;4.30;;;23.90;99.90;;;;;;5111847;28;20212;-66
2022/07/25 11:19:17;;;;;;;5.67;3.70;;;23.90;99.90;;;;;;5116906;27;20233;-66
2022/07/25 11:21:45;;;;;;;5.80;4.10;;;23.90;99.90;;;;;;5128691;28;20193;-67
2022/07/25 11:24:12;;;;;;;6.57;4.37;;;23.90;99.90;;;;;;5127868;27;20559;-66
2022/07/25 11:26:47;;;;;;;6.13;4.23;;;23.90;99.90;;;;;;5110860;28;20301;-66
2022/07/25 11:29:25;;;;;;;10.03;4.80;;;24.00;99.90;;;;;;5123522;28;20201;-65
2022/07/25 11:31:57;;;;;;;8.73;5.40;;;24.10;99.90;;;;;;5110998;28;20214;-65
2022/07/25 11:34:26;;;;;;;5.90;4.13;;;24.10;99.90;;;;;;5114777;28;20304;-69
2022/07/25 11:36:56;;;;;;;6.77;4.57;;;24.00;99.90;;;;;;5131261;27;20279;-68
2022/07/25 11:39:24;;;;;;;7.10;4.17;;;23.90;99.90;;;;;;5129578;27;20232;-66
2022/07/25 11:42:03;;;;;;;6.77;4.43;;;24.00;99.90;;;;;;5115116;27;20202;-66
2022/07/25 11:44:34;;;;;;;8.67;4.40;;;24.00;99.90;;;;;;5123081;27;20758;-67
2022/07/25 11:47:02;;;;;;;9.77;4.53;;;24.00;99.90;;;;;;5117850;28;20203;-66
2022/07/25 11:49:29;;;;;;;6.53;4.40;;;24.00;99.90;;;;;;5124282;27;20325;-67
2022/07/25 11:51:56;;;;;;;8.37;4.87;;;24.00;99.90;;;;;;5115516;28;20233;-68
2022/07/25 11:54:23;;;;;;;8.60;4.70;;;24.10;99.90;;;;;;5131306;27;20220;-66
2022/07/25 11:56:50;;;;;;;8.37;4.80;;;24.10;99.90;;;;;;5114438;28;20212;-66
2022/07/25 11:59:18;;;;;;;9.13;4.67;;;24.10;99.90;;;;;;5124637;28;20283;-68
2022/07/25 12:01:46;;;;;;;7.37;4.60;;;24.10;99.90;;;;;;5131217;27;20203;-65
2022/07/25 12:04:15;;;;;;;6.10;3.47;;;24.20;99.90;;;;;;5111565;28;20199;-67
2022/07/25 12:06:42;;;;;;;7.60;3.63;;;24.30;99.90;;;;;;5120459;27;20656;-67
2022/07/25 12:09:14;;;;;;;7.27;4.20;;;24.30;99.90;;;;;;5116487;27;20252;-67
2022/07/25 12:11:41;;;;;;;7.40;4.50;;;24.40;99.90;;;;;;5121817;27;20744;-67
2022/07/25 12:14:08;;;;;;;8.00;4.60;;;24.40;99.90;;;;;;5134619;27;20224;-67
2022/07/25 12:16:37;;;;;;;8.33;4.17;;;24.50;99.90;;;;;;5135178;27;20206;-68
2022/07/25 12:19:08;;;;;;;7.43;4.40;;;24.50;99.90;;;;;;5135353;27;20847;-71
2022/07/25 12:21:35;;;;;;;8.83;4.73;;;24.50;99.90;;;;;;5134817;27;20191;-68
2022/07/25 12:24:02;;;;;;;8.23;5.30;;;24.50;99.90;;;;;;5133834;27;20631;-70
2022/07/25 12:26:29;;;;;;;6.67;4.83;;;24.50;99.90;;;;;;5128740;27;20296;-67
2022/07/25 12:28:56;;;;;;;9.50;4.87;;;24.50;99.90;;;;;;5134761;27;20233;-68
2022/07/25 12:31:27;;;;;;;7.53;4.57;;;24.50;99.90;;;;;;5134686;27;20218;-68
2022/07/25 12:33:55;;;;;;;6.10;3.90;;;24.50;99.90;;;;;;5134172;27;20690;-69
2022/07/25 12:36:22;;;;;;;6.00;4.17;;;24.60;99.90;;;;;;5134575;27;20300;-69
2022/07/25 12:38:49;;;;;;;6.60;3.87;;;24.70;99.90;;;;;;5134309;27;20300;-67
2022/07/25 12:41:21;;;;;;;5.53;3.50;;;24.80;99.90;;;;;;5133689;27;20603;-69
2022/07/25 12:43:48;;;;;;;5.60;3.90;;;24.90;99.90;;;;;;5134666;27;20208;-68
2022/07/25 12:46:15;;;;;;;5.00;3.70;;;24.80;99.90;;;;;;5133823;27;20204;-68
2022/07/25 12:48:42;;;;;;;5.70;3.63;;;24.70;99.90;;;;;;5134385;27;20292;-69
2022/07/25 12:51:10;;;;;;;5.93;3.73;;;24.60;99.90;;;;;;5128494;27;20637;-68
2022/07/25 12:53:37;;;;;;;7.38;4.13;;;24.50;99.90;;;;;;5113779;27;20223;-67